Cherokee — 9HBC7 — position and weather

sailwx.info

Track history (hours):
 
Tides and Currents Weather Stations Pressure Air Temp Water Temp Dewpoint Dewpoint Depression Visibility Wind Speed Wind Dir Waves Ship Positions

Cherokee

Last reported at 2016-May-03 13:33 UTC. Time now 2016-May-03 14:23 UTC.
Position N 46°46' E 038°11'.

Length 140 m; draft 2.8 m.

Type: Cargo ship. MMSI: 215059000.

Date/timePositionNaut miles runAvg speedWind from/ knotsBaromVisibWave heightAir tempDewpointWater temp
2016-May-03 13:33N 46°46' E 038°11'0 0.0
2016-May-03 12:33N 46°46' E 038°11'0 0.0
2016-May-03 11:33N 46°46' E 038°11'0 0.0
2016-May-03 10:30N 46°46' E 038°11'0 0.0
2016-May-03 09:33N 46°46' E 038°11'0 0.0
2016-May-03 08:24N 46°46' E 038°11'0 0.0
2016-May-03 07:24N 46°46' E 038°11'0 0.0
2016-May-03 05:18N 46°46' E 038°11'0 0.0
2016-May-03 04:30N 46°46' E 038°11'0 0.0
2016-May-03 03:30N 46°46' E 038°11'0 0.0
2016-May-03 02:30N 46°46' E 038°11'0 0.0
2016-May-03 01:30N 46°46' E 038°11'0 0.1
2016-May-03 00:24N 46°46' E 038°11'0 0.0
2016-May-02 23:30N 46°46' E 038°11'0 0.0
2016-May-02 22:30N 46°46' E 038°12'0 0.0
2016-May-02 21:30N 46°46' E 038°12'0 0.0
2016-May-02 20:30N 46°46' E 038°12'0 0.0
2016-May-02 19:15N 46°46' E 038°12'0 0.0
2016-May-02 18:30N 46°46' E 038°12'0 0.1
2016-May-02 17:30N 46°46' E 038°12'0 0.0
2016-May-02 16:27N 46°46' E 038°12'0 0.0
2016-May-02 15:30N 46°46' E 038°12'0 0.0
2016-May-02 14:30N 46°46' E 038°12'0 0.0
2016-May-02 13:33N 46°46' E 038°11'0 0.0
2016-May-02 12:33N 46°46' E 038°11'0 0.0
2016-May-02 11:21N 46°46' E 038°11'0 0.0
2016-May-02 10:30N 46°46' E 038°11'0 0.1
2016-May-02 09:33N 46°46' E 038°11'0 0.0
2016-May-02 08:18N 46°46' E 038°11'0 0.0
2016-May-02 06:30N 46°46' E 038°11'0 0.0
2016-May-02 05:27N 46°46' E 038°11'0 0.0
2016-May-02 04:30N 46°46' E 038°11'0 0.0
2016-May-02 03:30N 46°46' E 038°11'0 0.0
2016-May-02 02:30N 46°46' E 038°11'0 0.0
2016-May-02 01:30N 46°46' E 038°11'0 0.0
2016-May-02 00:21N 46°46' E 038°11'0 0.0
2016-May-01 23:33N 46°46' E 038°11'0 0.0
2016-May-01 22:33N 46°46' E 038°11'0 0.0
2016-May-01 21:30N 46°46' E 038°11'0 0.0
2016-May-01 19:15N 46°46' E 038°11'0 0.1
2016-May-01 18:33N 46°46' E 038°12'0 0.0
2016-May-01 17:33N 46°46' E 038°12'0 0.0
2016-May-01 16:18N 46°46' E 038°12'0 0.0
2016-May-01 15:21N 46°46' E 038°12'0 0.0
2016-May-01 14:30N 46°46' E 038°12'0 0.0
2016-May-01 13:33N 46°46' E 038°12'0 0.0
2016-May-01 12:33N 46°46' E 038°12'0 0.0
2016-May-01 11:30N 46°46' E 038°12'0 0.0
2016-May-01 10:30N 46°46' E 038°12'0 0.0
2016-May-01 09:33N 46°46' E 038°12'0 0.0
2016-May-01 08:30N 46°46' E 038°12'0 0.0
2016-May-01 07:24N 46°46' E 038°11'0 0.0
2016-May-01 06:33N 46°46' E 038°11'0 0.0
2016-May-01 05:30N 46°46' E 038°11'0 0.0
2016-May-01 04:30N 46°46' E 038°11'0 0.0
2016-May-01 03:30N 46°46' E 038°11'0 0.0
2016-May-01 02:30N 46°46' E 038°11'0 0.0
2016-May-01 01:30N 46°46' E 038°11'0 0.0
2016-May-01 00:24N 46°46' E 038°11'0 0.0
2016-Apr-30 23:30N 46°46' E 038°11'0 0.0
2016-Apr-30 22:30N 46°46' E 038°11'0 0.0
2016-Apr-30 21:30N 46°46' E 038°11'0 0.0
2016-Apr-30 20:24N 46°46' E 038°11'0 0.0
2016-Apr-30 19:24N 46°46' E 038°11'0 0.0
2016-Apr-30 17:33N 46°46' E 038°11'0 0.1
2016-Apr-30 16:33N 46°46' E 038°12'0 0.0
2016-Apr-30 15:27N 46°46' E 038°12'0 0.0
2016-Apr-30 14:30N 46°46' E 038°12'0 0.0
2016-Apr-30 13:18N 46°46' E 038°12'0 0.0
2016-Apr-30 12:21N 46°46' E 038°12'0 0.0
2016-Apr-30 11:33N 46°46' E 038°12'0 0.1
2016-Apr-30 10:34N 46°46' E 038°12'2 2.2
2016-Apr-30 09:34N 46°48' E 038°10'7 6.7
2016-Apr-30 08:33N 46°52' E 038°02'2 2.0
2016-Apr-30 07:33N 46°53' E 037°60'0 0.0
2016-Apr-30 06:27N 46°53' E 037°60'0 0.0
2016-Apr-30 05:21N 46°53' E 037°60'0 0.0
2016-Apr-30 04:30N 46°53' E 037°60'0 0.0
2016-Apr-30 03:30N 46°53' E 037°60'0 0.0
2016-Apr-30 02:30N 46°53' E 037°60'0 0.0
2016-Apr-30 01:30N 46°53' E 037°60'0 0.1
2016-Apr-30 00:30N 46°53' E 037°60'0 0.1
2016-Apr-29 23:30N 46°53' E 037°60'0 0.0
2016-Apr-29 22:30N 46°53' E 037°60'2 1.9
2016-Apr-29 21:33N 46°52' E 038°02'4 4.4
2016-Apr-29 20:33N 46°57' E 038°03'6 5.9
2016-Apr-29 19:34N 46°59' E 038°11'6 6.0
2016-Apr-29 18:33N 47°01' E 038°19'6 6.1
2016-Apr-29 17:33N 47°01' E 038°28'6 5.9
2016-Apr-29 16:34N 47°01' E 038°37'6 5.6
2016-Apr-29 15:33N 47°04' E 038°44'5 4.6
2016-Apr-29 14:33N 47°03' E 038°50'2 0.7
2016-Apr-29 12:20N 47°02' E 038°52'0 0.0
2016-Apr-29 10:14N 47°02' E 038°52'0 0.0
2016-Apr-29 09:32N 47°02' E 038°52'0 0.0
2016-Apr-28 18:32N 47°02' E 038°52'  
Track history (hours):
 
Tides and Currents Weather Stations Pressure Air Temp Water Temp Dewpoint Dewpoint Depression Visibility Wind Speed Wind Dir Waves Ship Positions

Cherokee

Last reported at 2016-May-03 13:33 UTC. Time now 2016-May-03 14:23 UTC.
Position N 46°46' E 038°11'.

Length 140 m; draft 2.8 m.

Type: Cargo ship. MMSI: 215059000.

Date/timePositionNaut miles runAvg speedWind from/ knotsBaromVisibWave heightAir tempDewpointWater temp
2016-May-03 13:33N 46°46' E 038°11'0 0.0
2016-May-03 12:33N 46°46' E 038°11'0 0.0
2016-May-03 11:33N 46°46' E 038°11'0 0.0
2016-May-03 10:30N 46°46' E 038°11'0 0.0
2016-May-03 09:33N 46°46' E 038°11'0 0.0
2016-May-03 08:24N 46°46' E 038°11'0 0.0
2016-May-03 07:24N 46°46' E 038°11'0 0.0
2016-May-03 05:18N 46°46' E 038°11'0 0.0
2016-May-03 04:30N 46°46' E 038°11'0 0.0
2016-May-03 03:30N 46°46' E 038°11'0 0.0
2016-May-03 02:30N 46°46' E 038°11'0 0.0
2016-May-03 01:30N 46°46' E 038°11'0 0.1
2016-May-03 00:24N 46°46' E 038°11'0 0.0
2016-May-02 23:30N 46°46' E 038°11'0 0.0
2016-May-02 22:30N 46°46' E 038°12'0 0.0
2016-May-02 21:30N 46°46' E 038°12'0 0.0
2016-May-02 20:30N 46°46' E 038°12'0 0.0
2016-May-02 19:15N 46°46' E 038°12'0 0.0
2016-May-02 18:30N 46°46' E 038°12'0 0.1
2016-May-02 17:30N 46°46' E 038°12'0 0.0
2016-May-02 16:27N 46°46' E 038°12'0 0.0
2016-May-02 15:30N 46°46' E 038°12'0 0.0
2016-May-02 14:30N 46°46' E 038°12'0 0.0
2016-May-02 13:33N 46°46' E 038°11'0 0.0
2016-May-02 12:33N 46°46' E 038°11'0 0.0
2016-May-02 11:21N 46°46' E 038°11'0 0.0
2016-May-02 10:30N 46°46' E 038°11'0 0.1
2016-May-02 09:33N 46°46' E 038°11'0 0.0
2016-May-02 08:18N 46°46' E 038°11'0 0.0
2016-May-02 06:30N 46°46' E 038°11'0 0.0
2016-May-02 05:27N 46°46' E 038°11'0 0.0
2016-May-02 04:30N 46°46' E 038°11'0 0.0
2016-May-02 03:30N 46°46' E 038°11'0 0.0
2016-May-02 02:30N 46°46' E 038°11'0 0.0
2016-May-02 01:30N 46°46' E 038°11'0 0.0
2016-May-02 00:21N 46°46' E 038°11'0 0.0
2016-May-01 23:33N 46°46' E 038°11'0 0.0
2016-May-01 22:33N 46°46' E 038°11'0 0.0
2016-May-01 21:30N 46°46' E 038°11'0 0.0
2016-May-01 19:15N 46°46' E 038°11'0 0.1
2016-May-01 18:33N 46°46' E 038°12'0 0.0
2016-May-01 17:33N 46°46' E 038°12'0 0.0
2016-May-01 16:18N 46°46' E 038°12'0 0.0
2016-May-01 15:21N 46°46' E 038°12'0 0.0
2016-May-01 14:30N 46°46' E 038°12'0 0.0
2016-May-01 13:33N 46°46' E 038°12'0 0.0
2016-May-01 12:33N 46°46' E 038°12'0 0.0
2016-May-01 11:30N 46°46' E 038°12'0 0.0
2016-May-01 10:30N 46°46' E 038°12'0 0.0
2016-May-01 09:33N 46°46' E 038°12'0 0.0
2016-May-01 08:30N 46°46' E 038°12'0 0.0
2016-May-01 07:24N 46°46' E 038°11'0 0.0
2016-May-01 06:33N 46°46' E 038°11'0 0.0
2016-May-01 05:30N 46°46' E 038°11'0 0.0
2016-May-01 04:30N 46°46' E 038°11'0 0.0
2016-May-01 03:30N 46°46' E 038°11'0 0.0
2016-May-01 02:30N 46°46' E 038°11'0 0.0
2016-May-01 01:30N 46°46' E 038°11'0 0.0
2016-May-01 00:24N 46°46' E 038°11'0 0.0
2016-Apr-30 23:30N 46°46' E 038°11'0 0.0
2016-Apr-30 22:30N 46°46' E 038°11'0 0.0
2016-Apr-30 21:30N 46°46' E 038°11'0 0.0
2016-Apr-30 20:24N 46°46' E 038°11'0 0.0
2016-Apr-30 19:24N 46°46' E 038°11'0 0.0
2016-Apr-30 17:33N 46°46' E 038°11'0 0.1
2016-Apr-30 16:33N 46°46' E 038°12'0 0.0
2016-Apr-30 15:27N 46°46' E 038°12'0 0.0
2016-Apr-30 14:30N 46°46' E 038°12'0 0.0
2016-Apr-30 13:18N 46°46' E 038°12'0 0.0
2016-Apr-30 12:21N 46°46' E 038°12'0 0.0
2016-Apr-30 11:33N 46°46' E 038°12'0 0.1
2016-Apr-30 10:34N 46°46' E 038°12'2 2.2
2016-Apr-30 09:34N 46°48' E 038°10'7 6.7
2016-Apr-30 08:33N 46°52' E 038°02'2 2.0
2016-Apr-30 07:33N 46°53' E 037°60'0 0.0
2016-Apr-30 06:27N 46°53' E 037°60'0 0.0
2016-Apr-30 05:21N 46°53' E 037°60'0 0.0
2016-Apr-30 04:30N 46°53' E 037°60'0 0.0
2016-Apr-30 03:30N 46°53' E 037°60'0 0.0
2016-Apr-30 02:30N 46°53' E 037°60'0 0.0
2016-Apr-30 01:30N 46°53' E 037°60'0 0.1
2016-Apr-30 00:30N 46°53' E 037°60'0 0.1
2016-Apr-29 23:30N 46°53' E 037°60'0 0.0
2016-Apr-29 22:30N 46°53' E 037°60'2 1.9
2016-Apr-29 21:33N 46°52' E 038°02'4 4.4
2016-Apr-29 20:33N 46°57' E 038°03'6 5.9
2016-Apr-29 19:34N 46°59' E 038°11'6 6.0
2016-Apr-29 18:33N 47°01' E 038°19'6 6.1
2016-Apr-29 17:33N 47°01' E 038°28'6 5.9
2016-Apr-29 16:34N 47°01' E 038°37'6 5.6
2016-Apr-29 15:33N 47°04' E 038°44'5 4.6
2016-Apr-29 14:33N 47°03' E 038°50'2 0.7
2016-Apr-29 12:20N 47°02' E 038°52'0 0.0
2016-Apr-29 10:14N 47°02' E 038°52'0 0.0
2016-Apr-29 09:32N 47°02' E 038°52'0 0.0
2016-Apr-28 18:32N 47°02' E 038°52'  

Dump ship's entire track history